Ana Sayfa
METAR-TAF:

METAR-TAF

Havaalanları :

Avenger Field

Sweetwater, Teksas, Amerika Birleşik Devletleri

Enlem: 32-28-02N, Boylam: 100-27-59W, yükseklik: 725 m

Güncel hava durumu gözlemi

Rapor saat 19:55 UTC de 18 dakika önce yapıldı.
Rüzgar kuzey/kuzeydoğudan 10 kt ve 19 kt'a kadar ani rüzgarlar
Sıcaklık 32°C
Nem 46%
Basınç 1021 hPa
Görüş mesafesi: 16.1 km
4400 ft yükseklikte parçalı bulutlu
9500 ft yükseklikte parçalı bulutlu

METAR: KSWW 221955Z AUTO 03010G19KT 10SM SCT044 SCT095 32/19 A3015 RMK AO2 T03220188

Saat: 15:13 (20:13 UTC)


TAF: eksik

4.000'den fazla havaalanı için hava durumu gözlemleri ve tahminleri (METAR ve TAF raporları).

Kullanılabilir istasyonlar harita üzerinde sarı ve kırmızı noktalarla gösterilir.

İstasyonun adını görmek için fareyi noktanın üzerinde gezdirin.

Sonrasında hava gözlem ve tahminlerini görmek için tıklayın.

Haritayı değiştirmek için: yaklaştırmak için siyah artı işaretli yeşil düğmeye ve uzaklaştırmak için de eksi işaretli düğmeye hızla tıklayın; bitişik haritalar için yeşil okları kullanın.


METAR-TAF: